createdAt,value
2018-06-27T00:00:38.837Z,13.97
2018-06-27T00:03:06.259Z,15.40
2018-06-27T00:05:33.706Z,14.70
2018-06-27T00:08:01.107Z,11.83
2018-06-27T00:10:28.552Z,15.47
2018-06-27T00:12:56.655Z,16.57
2018-06-27T00:15:24.790Z,11.37
2018-06-27T00:17:52.700Z,15.40
2018-06-27T00:20:20.175Z,13.83
2018-06-27T00:22:47.603Z,14.20
2018-06-27T00:25:15.035Z,12.87
2018-06-27T00:27:42.480Z,15.33
2018-06-27T00:30:09.883Z,12.77
2018-06-27T00:32:37.335Z,16.73
2018-06-27T00:35:04.723Z,13.23
2018-06-27T00:37:32.112Z,12.87
2018-06-27T00:39:59.634Z,10.97
2018-06-27T00:42:27.035Z,14.13
2018-06-27T00:44:54.456Z,13.67
2018-06-27T00:47:21.869Z,11.33
2018-06-27T00:49:49.680Z,13.80
2018-06-27T00:52:17.068Z,16.33
2018-06-27T00:54:44.511Z,14.73
2018-06-27T00:57:11.936Z,13.00
2018-06-27T00:59:39.358Z,15.03
2018-06-27T01:02:06.779Z,11.57
2018-06-27T01:04:34.208Z,13.23
2018-06-27T01:07:01.624Z,13.20
2018-06-27T01:09:29.031Z,11.33
2018-06-27T01:11:56.480Z,10.73
2018-06-27T01:14:23.930Z,13.07
2018-06-27T01:16:51.379Z,13.73
2018-06-27T01:19:18.807Z,15.80
2018-06-27T01:21:46.212Z,14.00
2018-06-27T01:24:13.586Z,16.53
2018-06-27T01:26:41.028Z,13.83
2018-06-27T01:29:08.472Z,13.80
2018-06-27T01:31:35.872Z,15.07
2018-06-27T01:34:03.338Z,14.87
2018-06-27T01:36:30.743Z,11.87
2018-06-27T01:38:58.143Z,11.47
2018-06-27T01:41:25.603Z,14.70
2018-06-27T01:43:52.997Z,13.97
2018-06-27T01:46:20.420Z,15.20
2018-06-27T01:48:47.822Z,15.83
2018-06-27T01:51:15.239Z,14.87
2018-06-27T01:53:42.675Z,14.23
2018-06-27T01:56:10.819Z,14.07
2018-06-27T01:58:38.224Z,12.23
2018-06-27T02:01:06.183Z,14.43
2018-06-27T02:03:33.620Z,12.40
2018-06-27T02:06:01.272Z,17.90
2018-06-27T02:08:28.687Z,12.37
2018-06-27T02:10:56.262Z,9.60
2018-06-27T02:13:23.656Z,9.57
2018-06-27T02:15:51.112Z,11.10
2018-06-27T02:18:18.751Z,10.60
2018-06-27T02:20:46.170Z,11.83
2018-06-27T02:23:13.567Z,10.73
2018-06-27T02:25:41.199Z,10.47
2018-06-27T02:28:09.503Z,13.10
2018-06-27T02:30:37.151Z,9.73
2018-06-27T02:33:04.575Z,9.30
2018-06-27T02:35:32.001Z,13.30
2018-06-27T02:37:59.470Z,15.77
2018-06-27T02:40:26.935Z,15.97
2018-06-27T02:42:54.731Z,13.37
2018-06-27T02:45:22.139Z,10.13
2018-06-27T02:47:49.574Z,11.73
2018-06-27T02:50:17.214Z,10.37
2018-06-27T02:52:44.896Z,12.03
2018-06-27T02:55:12.640Z,13.90
2018-06-27T02:57:40.336Z,8.90
2018-06-27T03:00:09.222Z,11.00
2018-06-27T03:02:36.746Z,10.37
2018-06-27T03:05:04.073Z,11.47
2018-06-27T03:07:31.477Z,9.90
2018-06-27T03:09:58.888Z,12.70
2018-06-27T03:12:26.272Z,9.17
2018-06-27T03:14:53.672Z,10.43
2018-06-27T03:17:21.106Z,13.17
2018-06-27T03:19:48.574Z,13.27
2018-06-27T03:22:16.058Z,12.10
2018-06-27T03:24:43.463Z,13.33
2018-06-27T03:27:10.891Z,14.03
2018-06-27T03:29:38.362Z,12.00
2018-06-27T03:32:05.753Z,12.27
2018-06-27T03:34:33.168Z,12.43
2018-06-27T03:37:00.571Z,11.87
2018-06-27T03:39:28.002Z,10.67
2018-06-27T03:41:55.400Z,17.53
2018-06-27T03:44:22.851Z,11.73
2018-06-27T03:46:50.302Z,11.87
2018-06-27T03:49:17.903Z,17.50
2018-06-27T03:51:45.294Z,10.60
2018-06-27T03:54:12.702Z,14.07
2018-06-27T03:56:40.098Z,12.47
2018-06-27T03:59:07.770Z,17.07
2018-06-27T04:01:35.068Z,14.60
2018-06-27T04:04:02.514Z,12.90
2018-06-27T04:06:29.948Z,17.17
2018-06-27T04:08:57.368Z,15.83
2018-06-27T04:11:24.794Z,14.60
2018-06-27T04:13:52.220Z,10.83
2018-06-27T04:16:19.709Z,13.20
2018-06-27T04:18:47.110Z,12.90
2018-06-27T04:21:14.567Z,13.50
2018-06-27T04:23:41.967Z,14.57
2018-06-27T04:26:09.375Z,12.67
2018-06-27T04:28:36.796Z,14.37
2018-06-27T04:31:04.230Z,14.00
2018-06-27T04:33:31.634Z,11.53
2018-06-27T04:35:59.276Z,15.37
2018-06-27T04:38:26.647Z,16.13
2018-06-27T04:40:54.043Z,10.93
2018-06-27T04:43:21.614Z,15.00
2018-06-27T04:45:49.041Z,12.87
2018-06-27T04:48:16.444Z,10.77
2018-06-27T04:50:43.860Z,12.33
2018-06-27T04:53:11.270Z,13.73
2018-06-27T04:55:38.717Z,13.70
2018-06-27T04:58:06.148Z,10.90
2018-06-27T05:00:33.543Z,14.57
2018-06-27T05:03:00.939Z,10.77
2018-06-27T05:05:28.355Z,13.07
2018-06-27T05:07:55.787Z,14.57
2018-06-27T05:10:23.187Z,14.10
2018-06-27T05:12:50.601Z,13.77
2018-06-27T05:15:18.092Z,12.53
2018-06-27T05:17:45.532Z,16.30
2018-06-27T05:20:13.220Z,14.67
2018-06-27T05:22:40.623Z,15.97
2018-06-27T05:25:37.595Z,13.77
2018-06-27T05:28:05.010Z,16.17
2018-06-27T05:30:32.415Z,17.13
2018-06-27T05:32:59.837Z,12.23
2018-06-27T05:35:27.259Z,17.17
2018-06-27T05:37:54.704Z,14.63
2018-06-27T05:40:22.127Z,12.07
2018-06-27T05:42:49.776Z,15.90
2018-06-27T05:45:17.286Z,15.83
2018-06-27T05:47:44.731Z,12.47
2018-06-27T05:50:19.067Z,12.87
2018-06-27T05:52:46.567Z,16.87
2018-06-27T05:55:13.994Z,13.80
2018-06-27T05:57:41.427Z,14.80
2018-06-27T06:00:09.543Z,17.17
2018-06-27T06:02:37.158Z,13.70
2018-06-27T06:05:04.811Z,13.43
2018-06-27T06:07:32.259Z,12.47
2018-06-27T06:09:59.949Z,13.57
2018-06-27T06:12:27.407Z,13.80
2018-06-27T06:14:55.196Z,13.50
2018-06-27T06:17:22.601Z,11.60
2018-06-27T06:19:50.166Z,18.17
2018-06-27T06:22:17.883Z,13.50
2018-06-27T06:24:45.952Z,12.17
2018-06-27T06:27:14.383Z,16.77
2018-06-27T06:29:42.878Z,12.37
2018-06-27T06:32:10.367Z,13.10
2018-06-27T06:34:38.283Z,13.00
2018-06-27T06:37:05.755Z,13.97
2018-06-27T06:39:33.439Z,10.07
2018-06-27T06:42:01.272Z,12.70
2018-06-27T06:44:29.183Z,11.57
2018-06-27T06:46:56.574Z,14.40
2018-06-27T06:49:23.994Z,11.80
2018-06-27T06:51:51.409Z,14.97
2018-06-27T06:54:18.839Z,11.63
2018-06-27T06:56:46.303Z,15.97
2018-06-27T06:59:13.705Z,12.43
2018-06-27T07:01:41.119Z,16.63
2018-06-27T07:04:08.543Z,14.47
2018-06-27T07:06:35.967Z,14.47
2018-06-27T07:09:05.630Z,16.40
2018-06-27T07:11:33.071Z,15.10
2018-06-27T07:14:00.462Z,13.83
2018-06-27T07:16:27.892Z,13.43
2018-06-27T07:18:55.299Z,13.90
2018-06-27T07:21:22.711Z,13.87
2018-06-27T07:23:50.803Z,13.73
2018-06-27T07:26:18.229Z,13.00
2018-06-27T07:28:45.729Z,14.30
2018-06-27T07:31:13.165Z,12.43
2018-06-27T07:33:40.599Z,14.37
2018-06-27T07:36:08.065Z,16.53
2018-06-27T07:38:35.556Z,12.67
2018-06-27T07:41:03.066Z,13.83
2018-06-27T07:43:30.518Z,13.37
2018-06-27T07:45:58.004Z,12.80
2018-06-27T07:48:25.438Z,12.80
2018-06-27T07:50:52.899Z,14.27
2018-06-27T07:53:20.333Z,14.67
2018-06-27T07:55:47.767Z,15.40
2018-06-27T07:58:15.204Z,13.50
2018-06-27T08:00:42.641Z,16.73
2018-06-27T08:03:10.067Z,12.23
2018-06-27T08:05:37.531Z,12.17
2018-06-27T08:08:05.021Z,18.93
2018-06-27T08:10:32.459Z,16.97
2018-06-27T08:13:00.350Z,16.40
2018-06-27T08:15:27.778Z,12.87
2018-06-27T08:17:55.274Z,14.10
2018-06-27T08:20:22.632Z,14.30
2018-06-27T08:22:50.060Z,15.47
2018-06-27T08:25:17.520Z,15.20
2018-06-27T08:27:44.990Z,11.37
2018-06-27T08:30:12.527Z,14.90
2018-06-27T08:32:40.015Z,13.07
2018-06-27T08:35:07.449Z,14.57
2018-06-27T08:37:34.996Z,14.57
2018-06-27T08:40:02.513Z,14.53
2018-06-27T08:42:29.956Z,14.70
2018-06-27T08:44:57.416Z,15.93
2018-06-27T08:47:24.860Z,13.30
2018-06-27T08:49:52.319Z,13.07
2018-06-27T08:52:19.753Z,11.97
2018-06-27T08:54:47.522Z,15.60
2018-06-27T08:57:16.635Z,15.83
2018-06-27T08:59:44.065Z,15.33
2018-06-27T09:02:11.640Z,16.43
2018-06-27T09:04:39.520Z,14.67
2018-06-27T09:07:07.580Z,16.73
2018-06-27T09:09:34.999Z,13.93
2018-06-27T09:12:02.443Z,15.10
2018-06-27T09:17:23.888Z,16.03
2018-06-27T09:19:51.388Z,13.07
2018-06-27T09:22:18.831Z,14.87
2018-06-27T09:24:46.257Z,14.40
2018-06-27T09:27:13.682Z,14.07
2018-06-27T09:29:41.314Z,12.87
2018-06-27T09:32:08.760Z,14.23
2018-06-27T09:34:36.177Z,16.13
2018-06-27T09:37:03.655Z,12.47
2018-06-27T09:39:31.097Z,13.90
2018-06-27T09:41:58.565Z,13.37
2018-06-27T09:44:26.030Z,17.67
2018-06-27T09:46:53.463Z,13.63
2018-06-27T09:49:20.919Z,14.73
2018-06-27T09:51:48.360Z,15.73
2018-06-27T09:54:15.813Z,16.73
2018-06-27T09:56:43.267Z,13.07
2018-06-27T09:59:10.721Z,17.43
2018-06-27T10:01:38.236Z,14.23
2018-06-27T10:04:05.698Z,13.07
2018-06-27T10:06:33.114Z,16.40
2018-06-27T10:09:00.526Z,13.50
2018-06-27T10:11:28.008Z,12.70
2018-06-27T10:13:55.623Z,21.20
2018-06-27T10:16:23.091Z,14.97
2018-06-27T10:18:50.758Z,15.30
2018-06-27T10:21:18.208Z,16.67
2018-06-27T10:23:45.664Z,14.20
2018-06-27T10:26:13.099Z,12.47
2018-06-27T10:28:40.552Z,13.47
2018-06-27T10:31:08.830Z,16.37
2018-06-27T10:33:36.236Z,13.83
2018-06-27T10:36:03.744Z,14.27
2018-06-27T10:38:31.199Z,13.60
2018-06-27T10:40:58.640Z,15.93
2018-06-27T10:43:26.100Z,11.53
2018-06-27T10:45:53.540Z,12.70
2018-06-27T10:48:21.003Z,12.37
2018-06-27T10:50:48.439Z,12.53
2018-06-27T10:53:15.903Z,15.33
2018-06-27T10:55:43.337Z,15.07
2018-06-27T10:58:10.873Z,16.73
2018-06-27T11:00:38.322Z,13.03
2018-06-27T11:03:05.826Z,11.17
2018-06-27T11:05:33.232Z,12.97
2018-06-27T11:08:00.711Z,15.48
2018-06-27T11:10:28.210Z,13.00
2018-06-27T11:12:55.620Z,12.43
2018-06-27T11:15:23.061Z,12.93
2018-06-27T11:17:50.498Z,11.97
2018-06-27T11:20:17.906Z,12.55
2018-06-27T11:22:45.366Z,9.73
2018-06-27T11:25:12.809Z,10.18
2018-06-27T11:27:40.239Z,11.85
2018-06-27T11:30:07.715Z,12.20
2018-06-27T11:32:35.127Z,16.52
2018-06-27T11:35:02.572Z,9.85
2018-06-27T11:37:30.004Z,11.12
2018-06-27T11:39:57.489Z,10.65
2018-06-27T11:42:24.929Z,11.50
2018-06-27T11:44:52.324Z,12.10
2018-06-27T11:47:19.753Z,12.75
2018-06-27T11:49:47.203Z,14.18
2018-06-27T11:52:14.689Z,12.88
2018-06-27T11:54:42.119Z,10.13
2018-06-27T11:57:09.849Z,13.88
2018-06-27T11:59:37.414Z,10.63
2018-06-27T12:02:04.856Z,10.88
2018-06-27T12:04:32.281Z,9.75
2018-06-27T12:06:59.809Z,7.45
2018-06-27T12:09:27.259Z,8.03
2018-06-27T12:11:54.758Z,10.05
2018-06-27T12:14:22.235Z,11.03
2018-06-27T12:16:49.669Z,13.35
2018-06-27T12:19:17.125Z,11.25
2018-06-27T12:21:44.529Z,11.00
2018-06-27T12:24:21.311Z,10.25
2018-06-27T12:26:48.830Z,8.68
2018-06-27T12:29:16.280Z,9.63
2018-06-27T12:31:43.726Z,9.78
2018-06-27T12:34:11.171Z,10.10
2018-06-27T12:36:38.602Z,7.17
2018-06-27T12:39:06.517Z,7.78
2018-06-27T12:44:52.549Z,9.63
2018-06-27T12:53:58.147Z,8.00
2018-06-27T12:56:32.778Z,10.23
2018-06-27T12:59:00.244Z,8.18
2018-06-27T13:01:27.714Z,8.98
2018-06-27T13:03:55.334Z,8.20
2018-06-27T13:06:22.842Z,4.92
2018-06-27T13:08:50.402Z,6.05
2018-06-27T13:11:18.026Z,6.58
2018-06-27T13:13:45.480Z,7.25
2018-06-27T13:16:12.928Z,5.80
2018-06-27T13:18:40.391Z,5.20
2018-06-27T13:21:07.878Z,7.80
2018-06-27T13:23:35.340Z,6.55
2018-06-27T13:26:02.812Z,5.50
2018-06-27T13:28:30.275Z,7.85
2018-06-27T13:30:57.757Z,7.85
2018-06-27T13:33:25.235Z,6.20
2018-06-27T13:35:52.722Z,8.65
2018-06-27T13:38:20.238Z,4.28
2018-06-27T13:40:47.729Z,5.50
2018-06-27T13:43:15.399Z,4.62
2018-06-27T13:45:42.742Z,4.95
2018-06-27T13:48:10.219Z,3.72
2018-06-27T13:50:37.714Z,4.33
2018-06-27T13:53:05.244Z,4.97
2018-06-27T13:55:32.705Z,5.55
2018-06-27T13:58:00.124Z,4.30
2018-06-27T14:00:27.565Z,6.22
2018-06-27T14:02:55.040Z,4.67
2018-06-27T14:05:22.495Z,7.28
2018-06-27T14:07:49.971Z,5.28
2018-06-27T14:10:17.435Z,8.00
2018-06-27T14:12:44.865Z,7.72
2018-06-27T14:15:12.296Z,6.97
2018-06-27T14:17:39.769Z,6.20
2018-06-27T14:20:07.224Z,4.87
2018-06-27T14:22:34.687Z,4.53
2018-06-27T14:25:02.172Z,6.92
2018-06-27T14:27:29.641Z,4.95
2018-06-27T14:29:57.125Z,6.33
2018-06-27T14:32:24.561Z,4.97
2018-06-27T14:34:51.988Z,5.28
2018-06-27T14:37:19.477Z,4.87
2018-06-27T14:39:46.991Z,5.08
2018-06-27T14:42:14.497Z,5.47
2018-06-27T14:44:42.054Z,7.28
2018-06-27T14:47:09.541Z,3.52
2018-06-27T14:49:36.996Z,4.15
2018-06-27T14:52:04.470Z,5.83
2018-06-27T14:54:31.913Z,5.08
2018-06-27T14:56:59.395Z,4.70
2018-06-27T14:59:26.947Z,6.03
2018-06-27T15:01:54.375Z,5.50
2018-06-27T15:04:22.072Z,3.95
2018-06-27T15:06:49.587Z,4.08
2018-06-27T15:09:17.155Z,4.28
2018-06-27T15:11:44.680Z,4.50
2018-06-27T15:14:12.820Z,3.37
2018-06-27T15:16:40.820Z,6.28
2018-06-27T15:19:08.274Z,7.78
2018-06-27T15:21:35.827Z,3.37
2018-06-27T15:24:03.466Z,4.60
2018-06-27T15:26:30.961Z,3.25
2018-06-27T15:28:58.450Z,6.05
2018-06-27T15:31:25.942Z,3.25
2018-06-27T15:33:53.450Z,4.17
2018-06-27T15:36:20.930Z,5.40
2018-06-27T15:38:48.375Z,3.52
2018-06-27T15:41:15.908Z,5.05
2018-06-27T15:43:43.563Z,3.22
2018-06-27T15:46:11.369Z,4.40
2018-06-27T15:48:38.839Z,4.75
2018-06-27T15:51:06.314Z,4.83
2018-06-27T15:53:33.741Z,3.40
2018-06-27T15:56:01.213Z,3.35
2018-06-27T15:58:28.695Z,4.50
2018-06-27T16:00:56.236Z,4.87
2018-06-27T16:03:23.767Z,3.72
2018-06-27T16:05:51.243Z,3.90
2018-06-27T16:08:18.749Z,2.95
2018-06-27T16:10:46.208Z,4.35
2018-06-27T16:13:13.633Z,3.58
2018-06-27T16:15:41.121Z,3.58
2018-06-27T16:18:08.651Z,5.65
2018-06-27T16:20:36.148Z,4.20
2018-06-27T16:23:03.751Z,3.35
2018-06-27T16:25:31.224Z,2.87
2018-06-27T16:27:58.748Z,4.62
2018-06-27T16:30:26.278Z,3.92
2018-06-27T16:32:53.761Z,4.30
2018-06-27T16:35:21.183Z,5.22
2018-06-27T16:37:49.151Z,2.58
2018-06-27T16:40:16.635Z,3.60
2018-06-27T16:42:44.125Z,2.98
2018-06-27T16:45:11.625Z,2.90
2018-06-27T16:47:39.102Z,2.60
2018-06-27T16:50:07.191Z,4.03
2018-06-27T16:52:34.697Z,3.50
2018-06-27T16:55:02.179Z,4.78
2018-06-27T16:57:29.667Z,3.45
2018-06-27T16:59:57.116Z,3.58
2018-06-27T17:02:24.584Z,2.70
2018-06-27T17:04:52.059Z,5.67
2018-06-27T17:07:19.565Z,3.00
2018-06-27T17:09:47.065Z,3.40
2018-06-27T17:12:14.681Z,3.72
2018-06-27T17:14:42.154Z,2.52
2018-06-27T17:17:09.622Z,3.35
2018-06-27T17:19:37.046Z,3.12
2018-06-27T17:22:04.501Z,2.83
2018-06-27T17:24:31.956Z,2.92
2018-06-27T17:26:59.439Z,4.83
2018-06-27T17:29:26.836Z,4.60
2018-06-27T17:31:54.293Z,2.92
2018-06-27T17:34:21.811Z,4.85
2018-06-27T17:36:49.292Z,5.42
2018-06-27T17:39:16.807Z,6.43
2018-06-27T17:41:44.244Z,3.65
2018-06-27T17:44:11.820Z,2.67
2018-06-27T17:46:39.293Z,3.27
2018-06-27T17:49:06.854Z,3.50
2018-06-27T17:51:34.295Z,3.23
2018-06-27T17:54:01.736Z,2.53
2018-06-27T17:56:29.518Z,3.73
2018-06-27T17:58:56.941Z,3.37
2018-06-27T18:01:24.416Z,2.23
2018-06-27T18:03:53.110Z,2.13
2018-06-27T18:06:20.647Z,2.70
2018-06-27T18:08:48.130Z,2.83
2018-06-27T18:11:15.613Z,2.83
2018-06-27T18:13:43.031Z,2.10
2018-06-27T18:16:10.515Z,1.72
2018-06-27T18:18:38.016Z,2.42
2018-06-27T18:21:05.656Z,3.33
2018-06-27T18:23:33.447Z,1.80
2018-06-27T18:26:00.895Z,1.75
2018-06-27T18:28:28.327Z,2.10
2018-06-27T18:30:55.764Z,2.60
2018-06-27T18:33:23.244Z,2.62
2018-06-27T18:35:50.695Z,2.77
2018-06-27T18:38:18.184Z,2.55
2018-06-27T18:40:45.683Z,2.50
2018-06-27T18:43:13.098Z,5.97
2018-06-27T18:45:40.527Z,2.17
2018-06-27T18:48:07.976Z,1.87
2018-06-27T18:50:35.452Z,3.15
2018-06-27T18:53:02.989Z,5.05
2018-06-27T18:55:30.429Z,1.87
2018-06-27T18:57:57.851Z,3.37
2018-06-27T19:00:25.297Z,5.05
2018-06-27T19:02:52.728Z,5.03
2018-06-27T19:05:20.188Z,3.85
2018-06-27T19:07:47.648Z,2.17
2018-06-27T19:10:15.225Z,3.05
2018-06-27T19:12:42.692Z,2.10
2018-06-27T19:15:10.115Z,6.85
2018-06-27T19:17:37.566Z,2.42
2018-06-27T19:20:05.022Z,3.02
2018-06-27T19:22:32.481Z,3.27
2018-06-27T19:25:00.006Z,3.67
2018-06-27T19:27:27.525Z,2.12
2018-06-27T19:29:55.171Z,2.65
2018-06-27T19:32:22.659Z,3.87
2018-06-27T19:34:50.084Z,3.30
2018-06-27T19:37:17.832Z,2.20
2018-06-27T19:39:45.326Z,3.17
2018-06-27T19:42:13.062Z,3.33
2018-06-27T19:44:40.781Z,5.57
2018-06-27T19:47:08.291Z,2.53
2018-06-27T19:49:35.766Z,2.33
2018-06-27T19:52:03.252Z,2.33
2018-06-27T19:54:30.724Z,2.47
2018-06-27T19:56:58.153Z,3.90
2018-06-27T19:59:25.777Z,3.00
2018-06-27T20:01:53.276Z,3.27
2018-06-27T20:04:20.709Z,5.67
2018-06-27T20:06:48.172Z,3.17
2018-06-27T20:09:15.620Z,2.47
2018-06-27T20:11:43.062Z,2.10
2018-06-27T20:14:10.630Z,4.60
2018-06-27T20:16:38.081Z,3.40
2018-06-27T20:19:05.514Z,2.60
2018-06-27T20:21:33.045Z,3.73
2018-06-27T20:24:00.529Z,3.90
2018-06-27T20:26:27.922Z,5.63
2018-06-27T20:28:55.357Z,8.63
2018-06-27T20:31:22.817Z,2.97
2018-06-27T20:33:50.250Z,2.23
2018-06-27T20:36:17.692Z,2.30
2018-06-27T20:38:45.148Z,3.17
2018-06-27T20:41:12.837Z,5.90
2018-06-27T20:43:40.260Z,3.13
2018-06-27T20:46:08.079Z,3.60
2018-06-27T20:48:35.876Z,7.37
2018-06-27T20:51:03.625Z,4.07
2018-06-27T20:53:31.115Z,2.60
2018-06-27T20:55:58.585Z,2.77
2018-06-27T20:58:26.043Z,3.20
2018-06-27T21:00:53.742Z,2.47
2018-06-27T21:03:21.203Z,3.27
2018-06-27T21:05:48.679Z,2.57
2018-06-27T21:08:17.722Z,8.63
2018-06-27T21:10:45.349Z,3.87
2018-06-27T21:13:12.804Z,2.80
2018-06-27T21:15:40.625Z,2.60
2018-06-27T21:18:08.064Z,3.57
2018-06-27T21:20:35.483Z,2.80
2018-06-27T21:23:02.975Z,3.20
2018-06-27T21:25:30.460Z,4.33
2018-06-27T21:27:57.923Z,3.33
2018-06-27T21:30:25.352Z,3.10
2018-06-27T21:32:52.812Z,3.83
2018-06-27T21:35:20.263Z,3.83
2018-06-27T21:37:47.808Z,3.53
2018-06-27T21:40:15.261Z,3.83
2018-06-27T21:42:42.684Z,3.27
2018-06-27T21:45:10.136Z,3.30
2018-06-27T21:47:37.560Z,4.67
2018-06-27T21:50:05.116Z,4.67
2018-06-27T21:52:32.529Z,4.13
2018-06-27T21:54:59.948Z,3.50
2018-06-27T21:57:27.377Z,3.40
2018-06-27T21:59:54.949Z,4.10
2018-06-27T22:02:22.468Z,7.53
2018-06-27T22:04:49.880Z,5.07
2018-06-27T22:07:17.532Z,3.53
2018-06-27T22:09:44.962Z,3.97
2018-06-27T22:12:12.480Z,5.10
2018-06-27T22:14:40.193Z,5.13
2018-06-27T22:17:07.635Z,4.93
2018-06-27T22:19:35.125Z,5.00
2018-06-27T22:22:02.572Z,8.57
2018-06-27T22:24:29.989Z,6.80
2018-06-27T22:26:57.522Z,7.53
2018-06-27T22:29:25.003Z,5.30
2018-06-27T22:31:52.397Z,8.27
2018-06-27T22:34:19.833Z,8.10
2018-06-27T22:36:47.313Z,9.97
2018-06-27T22:39:14.965Z,8.73
2018-06-27T22:41:42.480Z,9.63
2018-06-27T22:44:09.949Z,7.77
2018-06-27T22:46:37.448Z,6.57
2018-06-27T22:49:05.103Z,6.60
2018-06-27T22:51:32.531Z,8.53
2018-06-27T22:54:00.041Z,7.50
2018-06-27T22:56:27.515Z,8.83
2018-06-27T22:58:55.120Z,6.57
2018-06-27T23:01:22.561Z,8.07
2018-06-27T23:03:50.028Z,6.30
2018-06-27T23:06:17.443Z,8.77
2018-06-27T23:08:44.890Z,6.57
2018-06-27T23:11:12.386Z,7.50
2018-06-27T23:13:39.788Z,10.00
2018-06-27T23:16:07.276Z,9.47
2018-06-27T23:18:34.976Z,8.80
2018-06-27T23:21:02.558Z,9.33
2018-06-27T23:23:29.953Z,9.23
2018-06-27T23:25:57.414Z,10.77
2018-06-27T23:28:24.812Z,9.43
2018-06-27T23:30:52.256Z,9.57
2018-06-27T23:33:19.704Z,10.77
2018-06-27T23:35:47.151Z,7.93
2018-06-27T23:38:14.592Z,8.70
2018-06-27T23:40:42.083Z,8.73
2018-06-27T23:43:09.483Z,8.80
2018-06-27T23:45:36.892Z,8.37
2018-06-27T23:48:04.662Z,8.37
2018-06-27T23:50:32.058Z,8.17
2018-06-27T23:52:59.443Z,9.50
2018-06-27T23:55:26.880Z,9.57
2018-06-27T23:57:54.280Z,9.30
